Terminal Aerodrome Forecast
Issued by NWS Charleston, SC

Home | Current Version | Previous Version | Text Only | Print | Product List | Glossary On
Versions: 1 2 3 4 5 6 7 8 9 10 11 12 13 14 15 16 17 18 19 20 21 22 23 24 25 26 27 28 29 30 31 32
000
FTUS42 KCHS 190530
TAFCHS
TAF
KCHS 190530Z 1906/2006 17013G20KT P6SM BKN025
     FM191000 18014G22KT P6SM VCTS SCT015 BKN025CB
      TEMPO 1912/1914 4SM -TSRA BR
     FM191500 18025G32KT P6SM SCT025 BKN040
     FM191700 17032G42KT P6SM SCT030 BKN060
     FM192000 20020G30KT 3SM TSRA BR SCT015 BKN040CB
      TEMPO 1920/1922 1SM +TSRA BR
     FM192300 23015G25KT P6SM SCT025 BKN060=

USA.gov is the U.S. government's official web portal to all federal, state and local government web resources and services.